MT WASHINGTON (MTW)

Elevation: 920' · LOS ANGELES R basin · Operator: Los Angeles County Fire Dept

Query executed Thursday at 4:28:44   clock

Provisional data, subject to change.
Select a sensor type for a plot of data.

Earlier

Date   /   Time   RAIN     TEMP     REL HUM     BAR PRE     FUEL MS     FUEL TP     WIND SP     WIND DR     PEAK WS     PEAK WD     SOLAR R     BAT VOL    
(PDT)INCHES   DEG F   %   INCHES   %   DEG F   MPH   DEG   MPH   DEG   W/M^2   VOLTS  
10/22/2014 05:00 0.00 63 66 -- 15 61 -- -- -- -- 0.00 12.3
10/22/2014 06:00 0.00 60 70 -- 15 58 -- -- -- -- 0.00 12.2
10/22/2014 07:00 0.00 63 57 -- 15 60 -- -- -- -- 26.00 12.5
10/22/2014 08:00 0.00 68 46 -- 14 66 -- -- -- -- 42.00 12.7
10/22/2014 09:00 0.00 76 40 -- 14 76 -- -- -- -- 382.00 13.4
10/22/2014 10:00 0.00 82 30 -- 13 83 -- -- -- -- 525.00 13.4
10/22/2014 11:00 0.00 83 27 -- 11 91 -- -- -- -- 648.00 13.4
10/22/2014 12:00 0.00 91 19 -- 10 98 -- -- -- -- 612.00 13.3
10/22/2014 13:00 0.00 93 18 -- 9 106 -- -- -- -- 650.00 13.3
10/22/2014 14:00 0.00 89 27 -- 8 100 -- -- -- -- 548.00 13.4
10/22/2014 15:00 0.00 86 32 -- 8 93 -- -- -- -- 400.00 13.4
10/22/2014 16:00 0.00 81 36 -- 8 79 -- -- -- -- 152.00 13.5
10/22/2014 17:00 0.00 73 46 -- 8 73 -- -- -- -- 78.00 12.6
10/22/2014 18:00 0.00 69 57 -- 9 67 -- -- -- -- 3.00 12.5
10/22/2014 19:00 0.00 67 68 -- 10 66 -- -- -- -- 0.00 12.5
10/22/2014 20:00 0.00 66 76 -- 11 65 -- -- -- -- 0.00 12.5
10/22/2014 21:00 0.00 70 51 -- 11 67 -- -- -- -- 0.00 12.5
10/22/2014 22:00 0.00 71 51 -- 11 68 -- -- -- -- 0.00 12.4
10/22/2014 23:00 0.00 69 50 -- 11 66 -- -- -- -- 0.00 12.4
10/23/2014 00:00 0.00 69 55 -- 11 65 -- -- -- -- 0.00 12.4
10/23/2014 01:00 0.00 66 57 -- 11 65 -- -- -- -- 0.00 12.4
10/23/2014 02:00 0.00 66 53 -- 11 64 -- -- -- -- 0.00 12.4
10/23/2014 03:00 0.00 66 46 -- 10 65 -- -- -- -- 0.00 12.4
10/23/2014 04:00 -- -- -- -- -- -- -- -- -- -- -- --

Later | Latest

Warning! This data is preliminary and subject to revision.

Show MTW Map | 24 Hours MTW Data | Plot all MTW Sensors | Daily MTW Data | MTW Info